Aviation Digital Data Service (ADDS)

Output produced by METARs form (0016 UTC 26 June 2017)
found at http://aviationweather.gov/adds/metars/
 
KRUT 252340Z 2600/2624 29008KT P6SM SCT120 
     FM260200 16006KT P6SM SCT200 
     FM261200 28006KT P6SM BKN080 
     FM261800 26006KT P6SM VCSH BKN060